createdAt,value
2017-04-06T00:00:08.712Z,74.40
2017-04-06T00:01:07.172Z,73.60
2017-04-06T00:02:05.652Z,73.80
2017-04-06T00:03:04.128Z,73.60
2017-04-06T00:04:02.629Z,74.10
2017-04-06T00:05:01.842Z,73.80
2017-04-06T00:06:00.727Z,73.60
2017-04-06T00:06:59.964Z,73.50
2017-04-06T00:07:59.200Z,73.90
2017-04-06T00:08:58.419Z,72.30
2017-04-06T00:09:57.663Z,72.00
2017-04-06T00:10:56.143Z,72.00
2017-04-06T00:11:54.917Z,72.20
2017-04-06T00:12:53.399Z,71.60
2017-04-06T00:13:53.335Z,72.20
2017-04-06T00:14:52.611Z,72.00
2017-04-06T00:15:51.824Z,71.90
2017-04-06T00:16:50.284Z,71.80
2017-04-06T00:17:49.006Z,72.10
2017-04-06T00:18:48.988Z,72.30
2017-04-06T00:19:48.200Z,73.10
2017-04-06T00:20:47.412Z,72.60
2017-04-06T00:21:45.915Z,72.60
2017-04-06T00:22:44.388Z,73.00
2017-04-06T00:23:43.241Z,73.40
2017-04-06T00:24:41.684Z,73.50
2017-04-06T00:25:40.909Z,73.70
2017-04-06T00:26:39.369Z,73.80
2017-04-06T00:27:37.872Z,74.20
2017-04-06T00:28:37.101Z,74.10
2017-04-06T00:29:35.867Z,74.00
2017-04-06T00:30:35.089Z,74.40
2017-04-06T00:31:33.546Z,74.40
2017-04-06T00:32:32.031Z,75.00
2017-04-06T00:33:31.257Z,75.30
2017-04-06T00:34:29.716Z,75.20
2017-04-06T00:35:29.311Z,73.70
2017-04-06T00:36:27.747Z,73.60
2017-04-06T00:37:26.989Z,74.00
2017-04-06T00:38:25.454Z,74.00
2017-04-06T00:39:24.700Z,75.10
2017-04-06T00:40:23.183Z,75.60
2017-04-06T00:41:21.948Z,74.90
2017-04-06T00:42:20.396Z,74.80
2017-04-06T00:43:18.888Z,75.70
2017-04-06T00:44:18.104Z,74.90
2017-04-06T00:45:17.369Z,75.70
2017-04-06T00:46:15.953Z,74.90
2017-04-06T00:47:14.788Z,75.80
2017-04-06T00:48:14.040Z,76.40
2017-04-06T00:49:13.300Z,77.00
2017-04-06T00:50:12.528Z,77.60
2017-04-06T00:51:11.759Z,76.20
2017-04-06T00:52:14.785Z,76.10
2017-04-06T00:53:14.754Z,75.80
2017-04-06T00:54:14.032Z,76.40
2017-04-06T00:55:13.325Z,76.90
2017-04-06T00:56:11.788Z,76.90
2017-04-06T00:57:11.020Z,77.10
2017-04-06T00:58:10.549Z,76.20
2017-04-06T00:59:09.771Z,76.70
2017-04-06T01:00:08.215Z,76.70
2017-04-06T01:01:06.709Z,76.60
2017-04-06T01:02:05.201Z,76.40
2017-04-06T01:03:03.644Z,77.30
2017-04-06T01:04:02.513Z,75.40
2017-04-06T01:05:01.016Z,75.40
2017-04-06T01:05:59.456Z,77.10
2017-04-06T01:06:57.916Z,76.00
2017-04-06T01:07:56.740Z,76.10
2017-04-06T01:08:55.972Z,75.30
2017-04-06T01:09:55.504Z,75.40
2017-04-06T01:10:54.775Z,76.30
2017-04-06T01:11:53.260Z,76.20
2017-04-06T01:12:52.492Z,75.80
2017-04-06T01:13:50.943Z,75.80
2017-04-06T01:14:50.187Z,76.00
2017-04-06T01:15:49.708Z,74.40
2017-04-06T01:16:48.164Z,74.30
2017-04-06T01:17:46.612Z,75.10
2017-04-06T01:18:45.832Z,75.80
2017-04-06T01:19:44.335Z,75.80
2017-04-06T01:20:42.872Z,75.10
2017-04-06T01:21:41.628Z,75.40
2017-04-06T01:22:40.101Z,74.10
2017-04-06T01:23:39.311Z,75.20
2017-04-06T01:24:37.765Z,75.20
2017-04-06T01:25:36.248Z,75.10
2017-04-06T01:26:34.709Z,75.20
2017-04-06T01:27:33.444Z,75.00
2017-04-06T01:28:31.893Z,75.50
2017-04-06T01:29:30.344Z,76.20
2017-04-06T01:30:28.817Z,76.70
2017-04-06T01:31:27.269Z,77.30
2017-04-06T01:32:25.736Z,76.00
2017-04-06T01:33:25.357Z,75.80
2017-04-06T01:34:24.585Z,75.60
2017-04-06T01:35:23.048Z,75.60
2017-04-06T01:36:21.966Z,75.60
2017-04-06T01:37:20.416Z,74.60
2017-04-06T01:38:18.881Z,74.10
2017-04-06T01:39:18.504Z,74.50
2017-04-06T01:40:16.956Z,74.50
2017-04-06T01:41:15.601Z,74.30
2017-04-06T01:42:14.880Z,74.20
2017-04-06T01:43:14.137Z,74.60
2017-04-06T01:44:12.630Z,74.60
2017-04-06T01:45:12.148Z,74.10
2017-04-06T01:46:10.612Z,74.00
2017-04-06T01:47:09.821Z,74.90
2017-04-06T01:48:09.048Z,75.60
2017-04-06T01:49:08.256Z,75.30
2017-04-06T01:50:06.743Z,75.30
2017-04-06T01:51:05.505Z,75.60
2017-04-06T01:52:03.975Z,75.00
2017-04-06T01:53:03.196Z,76.00
2017-04-06T01:54:01.658Z,75.90
2017-04-06T01:55:00.092Z,75.80
2017-04-06T01:55:58.560Z,76.10
2017-04-06T01:56:58.131Z,76.10
2017-04-06T01:57:56.589Z,76.00
2017-04-06T01:58:55.023Z,75.80
2017-04-06T01:59:54.232Z,78.70
2017-04-06T02:00:52.696Z,78.60
2017-04-06T02:01:51.940Z,78.20
2017-04-06T02:02:51.483Z,78.50
2017-04-06T02:03:49.945Z,78.40
2017-04-06T02:04:48.433Z,79.00
2017-04-06T02:05:47.676Z,80.00
2017-04-06T02:06:46.232Z,80.00
2017-04-06T02:07:45.441Z,79.30
2017-04-06T02:08:44.223Z,79.30
2017-04-06T02:09:43.469Z,79.40
2017-04-06T02:10:42.684Z,79.30
2017-04-06T02:11:41.120Z,79.40
2017-04-06T02:12:39.597Z,78.80
2017-04-06T02:13:38.811Z,79.00
2017-04-06T02:14:37.552Z,79.00
2017-04-06T02:15:35.998Z,78.10
2017-04-06T02:16:35.208Z,78.80
2017-04-06T02:17:33.652Z,78.10
2017-04-06T02:18:32.096Z,79.80
2017-04-06T02:19:31.306Z,78.60
2017-04-06T02:20:30.092Z,78.60
2017-04-06T02:21:28.585Z,78.30
2017-04-06T02:22:27.795Z,78.10
2017-04-06T02:23:27.012Z,78.30
2017-04-06T02:24:25.484Z,78.20
2017-04-06T02:25:23.956Z,78.30
2017-04-06T02:26:22.732Z,78.30
2017-04-06T02:27:21.996Z,78.20
2017-04-06T02:28:20.459Z,78.20
2017-04-06T02:29:18.920Z,77.90
2017-04-06T02:30:17.372Z,77.90
2017-04-06T02:31:16.635Z,77.60
2017-04-06T02:32:16.175Z,77.70
2017-04-06T02:33:14.681Z,77.60
2017-04-06T02:34:14.652Z,77.00
2017-04-06T02:35:13.869Z,77.80
2017-04-06T02:36:12.340Z,77.80
2017-04-06T02:37:11.573Z,76.40
2017-04-06T02:38:10.321Z,76.10
2017-04-06T02:39:08.840Z,76.50
2017-04-06T02:40:07.275Z,77.50
2017-04-06T02:41:06.605Z,76.40
2017-04-06T02:42:05.051Z,76.20
2017-04-06T02:43:03.508Z,76.20
2017-04-06T02:44:03.226Z,76.20
2017-04-06T02:45:01.692Z,76.20
2017-04-06T02:46:00.908Z,76.20
2017-04-06T02:46:59.381Z,76.30
2017-04-06T02:47:58.599Z,76.20
2017-04-06T02:48:57.804Z,75.60
2017-04-06T02:49:57.348Z,76.30
2017-04-06T02:50:55.821Z,76.40
2017-04-06T02:51:54.268Z,76.10
2017-04-06T02:52:53.501Z,76.40
2017-04-06T02:53:51.944Z,76.40
2017-04-06T02:54:50.417Z,75.90
2017-04-06T02:55:49.140Z,76.20
2017-04-06T02:56:47.593Z,76.40
2017-04-06T02:57:46.156Z,76.50
2017-04-06T02:58:45.396Z,76.00
2017-04-06T02:59:44.633Z,76.00
2017-04-06T03:00:43.388Z,75.90
2017-04-06T03:01:43.024Z,76.80
2017-04-06T03:02:41.484Z,76.80
2017-04-06T03:03:40.715Z,75.20
2017-04-06T03:04:39.188Z,75.20
2017-04-06T03:05:38.396Z,76.10
2017-04-06T03:06:37.627Z,75.20
2017-04-06T03:07:37.892Z,76.00
2017-04-06T03:08:36.337Z,76.00
2017-04-06T03:09:34.792Z,76.00
2017-04-06T03:10:34.006Z,75.90
2017-04-06T03:11:32.472Z,75.80
2017-04-06T03:12:31.687Z,76.20
2017-04-06T03:13:30.843Z,76.10
2017-04-06T03:14:30.056Z,76.00
2017-04-06T03:15:28.496Z,76.00
2017-04-06T03:16:26.981Z,76.40
2017-04-06T03:17:25.436Z,76.20
2017-04-06T03:18:24.688Z,76.60
2017-04-06T03:19:23.472Z,76.20
2017-04-06T03:20:21.963Z,76.70
2017-04-06T03:21:20.409Z,77.50
2017-04-06T03:22:18.864Z,77.40
2017-04-06T03:23:18.080Z,77.70
2017-04-06T03:24:16.583Z,77.70
2017-04-06T03:25:16.221Z,77.50
2017-04-06T03:26:15.536Z,76.90
2017-04-06T03:27:14.763Z,77.60
2017-04-06T03:28:13.394Z,77.40
2017-04-06T03:29:12.672Z,78.50
2017-04-06T03:30:11.132Z,77.70
2017-04-06T03:31:11.705Z,77.40
2017-04-06T03:32:10.153Z,77.40
2017-04-06T03:33:09.360Z,77.80
2017-04-06T03:34:07.855Z,77.70
2017-04-06T03:35:06.300Z,77.70
2017-04-06T03:36:05.527Z,76.20
2017-04-06T03:37:05.160Z,77.70
2017-04-06T03:38:03.656Z,77.60
2017-04-06T03:39:02.104Z,77.60
2017-04-06T03:40:00.555Z,76.10
2017-04-06T03:40:59.004Z,75.20
2017-04-06T03:41:57.457Z,75.70
2017-04-06T03:42:56.252Z,75.90
2017-04-06T03:43:54.716Z,76.20
2017-04-06T03:44:53.172Z,76.60
2017-04-06T03:45:51.628Z,76.70
2017-04-06T03:46:50.085Z,76.40
2017-04-06T03:47:48.541Z,77.30
2017-04-06T03:48:47.349Z,77.50
2017-04-06T03:49:45.908Z,76.80
2017-04-06T03:50:44.738Z,75.80
2017-04-06T03:51:44.110Z,77.20
2017-04-06T03:52:43.714Z,77.40
2017-04-06T03:53:44.777Z,77.40
2017-04-06T03:54:44.285Z,77.40
2017-04-06T03:55:43.897Z,76.60
2017-04-06T03:56:42.712Z,76.60
2017-04-06T03:57:42.212Z,75.90
2017-04-06T03:58:41.655Z,75.70
2017-04-06T03:59:40.359Z,75.70
2017-04-06T04:00:40.327Z,76.60
2017-04-06T04:01:39.036Z,76.60
2017-04-06T04:02:37.496Z,76.70
2017-04-06T04:03:36.838Z,77.00
2017-04-06T04:04:35.292Z,77.00
2017-04-06T04:05:34.055Z,76.80
2017-04-06T04:06:32.848Z,76.90
2017-04-06T04:07:31.424Z,76.30
2017-04-06T04:08:29.884Z,77.30
2017-04-06T04:09:29.157Z,78.10
2017-04-06T04:10:27.748Z,78.10
2017-04-06T04:11:26.241Z,76.90
2017-04-06T04:12:26.001Z,77.50
2017-04-06T04:13:24.683Z,77.40
2017-04-06T04:14:23.979Z,76.90
2017-04-06T04:15:23.353Z,77.80
2017-04-06T04:16:22.612Z,77.80
2017-04-06T04:17:21.302Z,77.80
2017-04-06T04:18:20.849Z,78.50
2017-04-06T04:19:19.695Z,77.60
2017-04-06T04:20:18.924Z,77.90
2017-04-06T04:21:18.333Z,77.40
2017-04-06T04:22:16.797Z,77.60
2017-04-06T04:23:16.740Z,78.80
2017-04-06T04:24:15.632Z,78.80
2017-04-06T04:25:14.086Z,78.80
2017-04-06T04:26:12.551Z,78.30
2017-04-06T04:27:11.073Z,79.00
2017-04-06T04:28:09.577Z,79.80
2017-04-06T04:29:08.024Z,79.00
2017-04-06T04:30:06.839Z,80.20
2017-04-06T04:31:06.196Z,79.20
2017-04-06T04:32:04.908Z,79.30
2017-04-06T04:33:04.260Z,78.70
2017-04-06T04:34:03.029Z,79.10
2017-04-06T04:35:01.613Z,79.30
2017-04-06T04:36:00.457Z,79.70
2017-04-06T04:36:59.768Z,79.90
2017-04-06T04:37:59.076Z,80.20
2017-04-06T04:38:57.632Z,80.30
2017-04-06T04:39:56.180Z,80.00
2017-04-06T04:40:54.844Z,79.60
2017-04-06T04:41:53.751Z,80.70
2017-04-06T04:42:52.431Z,80.40
2017-04-06T04:43:51.284Z,80.60
2017-04-06T04:44:51.209Z,80.50
2017-04-06T04:45:51.423Z,81.10
2017-04-06T04:46:50.048Z,81.20
2017-04-06T04:47:49.741Z,81.20
2017-04-06T04:48:48.957Z,81.30
2017-04-06T04:49:47.910Z,81.30
2017-04-06T04:50:46.714Z,81.20
2017-04-06T04:51:45.857Z,81.40
2017-04-06T04:52:46.366Z,81.70
2017-04-06T04:53:45.940Z,81.60
2017-04-06T04:54:44.573Z,81.30
2017-04-06T04:55:43.941Z,81.60
2017-04-06T04:56:42.552Z,81.30
2017-04-06T04:57:41.961Z,81.90
2017-04-06T04:58:40.553Z,81.90
2017-04-06T04:59:39.416Z,81.90
2017-04-06T05:00:38.892Z,81.90
2017-04-06T05:01:37.521Z,82.00
2017-04-06T05:02:36.797Z,82.00
2017-04-06T05:03:36.025Z,81.70
2017-04-06T05:04:34.529Z,81.70
2017-04-06T05:05:35.055Z,81.90
2017-04-06T05:06:34.421Z,82.30
2017-04-06T05:07:32.963Z,82.30
2017-04-06T05:08:31.465Z,82.20
2017-04-06T05:09:29.963Z,82.40
2017-04-06T05:10:28.541Z,82.40
2017-04-06T05:11:27.452Z,82.30
2017-04-06T05:12:26.016Z,82.80
2017-04-06T05:13:24.584Z,82.90
2017-04-06T05:14:23.931Z,83.00
2017-04-06T05:15:22.457Z,83.00
2017-04-06T05:16:20.988Z,83.00
2017-04-06T05:17:20.713Z,82.80
2017-04-06T05:18:19.221Z,82.80
2017-04-06T05:19:18.484Z,83.30
2017-04-06T05:20:17.769Z,83.30
2017-04-06T05:21:16.996Z,83.20
2017-04-06T05:22:15.881Z,83.20
2017-04-06T05:23:15.418Z,84.60
2017-04-06T05:24:14.704Z,83.80
2017-04-06T05:25:13.973Z,82.90
2017-04-06T05:26:13.195Z,83.70
2017-04-06T05:27:11.683Z,83.60
2017-04-06T05:28:10.177Z,83.00
2017-04-06T05:29:09.014Z,82.60
2017-04-06T05:30:07.641Z,82.00
2017-04-06T05:31:07.005Z,82.00
2017-04-06T05:32:05.456Z,82.00
2017-04-06T05:33:03.912Z,82.40
2017-04-06T05:34:02.382Z,81.40
2017-04-06T05:35:01.140Z,81.70
2017-04-06T05:35:59.604Z,81.90
2017-04-06T05:36:58.070Z,82.00
2017-04-06T05:37:56.531Z,81.40
2017-04-06T05:38:54.996Z,81.60
2017-04-06T05:39:54.236Z,81.50
2017-04-06T05:40:53.741Z,81.70
2017-04-06T05:41:52.224Z,81.70
2017-04-06T05:42:50.716Z,80.90
2017-04-06T05:43:49.172Z,81.40
2017-04-06T05:44:48.381Z,81.50
2017-04-06T05:45:47.609Z,82.10
2017-04-06T05:46:46.438Z,81.20
2017-04-06T05:47:44.911Z,81.20
2017-04-06T05:48:44.500Z,81.60
2017-04-06T05:49:43.736Z,80.80
2017-04-06T05:50:42.960Z,80.50
2017-04-06T05:51:42.193Z,80.70
2017-04-06T05:52:41.779Z,80.50
2017-04-06T05:53:40.292Z,80.30
2017-04-06T05:54:38.856Z,81.50
2017-04-06T05:55:37.308Z,81.10
2017-04-06T05:56:35.765Z,81.50
2017-04-06T05:57:34.234Z,81.60
2017-04-06T05:58:32.996Z,80.90
2017-04-06T05:59:31.465Z,81.90
2017-04-06T06:00:29.968Z,81.60
2017-04-06T06:01:29.197Z,80.50
2017-04-06T06:02:27.665Z,80.30
2017-04-06T06:03:26.128Z,81.60
2017-04-06T06:04:25.724Z,81.20
2017-04-06T06:05:24.176Z,81.20
2017-04-06T06:06:22.680Z,81.30
2017-04-06T06:07:22.640Z,83.00
2017-04-06T06:08:21.164Z,83.00
2017-04-06T06:09:20.424Z,82.70
2017-04-06T06:10:19.180Z,82.60
2017-04-06T06:11:17.632Z,81.70
2017-04-06T06:12:16.092Z,82.50
2017-04-06T06:13:14.596Z,82.20
2017-04-06T06:14:13.064Z,82.20
2017-04-06T06:15:11.548Z,82.00
2017-04-06T06:16:10.689Z,81.90
2017-04-06T06:17:09.148Z,80.20
2017-04-06T06:18:07.620Z,79.90
2017-04-06T06:19:06.836Z,81.20
2017-04-06T06:20:06.068Z,80.70
2017-04-06T06:21:04.525Z,80.20
2017-04-06T06:22:03.392Z,78.80
2017-04-06T06:23:02.621Z,79.20
2017-04-06T06:24:01.629Z,79.30
2017-04-06T06:25:01.380Z,78.10
2017-04-06T06:26:00.630Z,78.40
2017-04-06T06:26:59.108Z,78.40
2017-04-06T06:27:58.979Z,77.30
2017-04-06T06:28:58.237Z,76.70
2017-04-06T06:29:56.756Z,76.70
2017-04-06T06:30:56.060Z,76.90
2017-04-06T06:31:54.525Z,76.90
2017-04-06T06:32:52.992Z,75.60
2017-04-06T06:33:51.922Z,76.30
2017-04-06T06:34:50.448Z,75.70
2017-04-06T06:35:49.719Z,76.00
2017-04-06T06:36:48.260Z,76.10
2017-04-06T06:37:46.813Z,75.20
2017-04-06T06:38:45.436Z,74.40
2017-04-06T06:39:45.101Z,72.90
2017-04-06T06:40:43.660Z,72.90
2017-04-06T06:41:42.157Z,72.10
2017-04-06T06:42:40.708Z,71.60
2017-04-06T06:43:39.187Z,70.80
2017-04-06T06:44:37.967Z,71.60
2017-04-06T06:45:37.628Z,71.90
2017-04-06T06:46:36.081Z,72.00
2017-04-06T06:47:34.528Z,71.20
2017-04-06T06:48:32.976Z,70.60
2017-04-06T06:49:32.189Z,72.20
2017-04-06T06:50:30.973Z,72.20
2017-04-06T06:51:30.584Z,71.80
2017-04-06T06:52:29.805Z,72.20
2017-04-06T06:53:29.015Z,72.70
2017-04-06T06:54:27.460Z,72.70
2017-04-06T06:55:26.718Z,71.00
2017-04-06T06:56:26.002Z,71.70
2017-04-06T06:57:25.548Z,71.60
2017-04-06T06:58:24.032Z,71.10
2017-04-06T06:59:22.487Z,72.00
2017-04-06T07:00:21.093Z,71.30
2017-04-06T07:01:20.325Z,71.40
2017-04-06T07:02:19.563Z,71.70
2017-04-06T07:03:29.784Z,71.80
2017-04-06T07:04:28.248Z,71.80
2017-04-06T07:05:26.691Z,71.60
2017-04-06T07:06:25.953Z,71.10
2017-04-06T07:07:24.508Z,71.10
2017-04-06T07:08:22.972Z,71.10
2017-04-06T07:09:21.872Z,71.40
2017-04-06T07:10:20.356Z,72.80
2017-04-06T07:11:19.588Z,72.30
2017-04-06T07:12:18.832Z,72.00
2017-04-06T07:13:17.332Z,72.00
2017-04-06T07:14:16.563Z,72.80
2017-04-06T07:15:16.141Z,73.00
2017-04-06T07:16:14.602Z,73.10
2017-04-06T07:17:13.057Z,71.70
2017-04-06T07:18:11.556Z,72.30
2017-04-06T07:19:10.764Z,72.10
2017-04-06T07:20:10.005Z,70.90
2017-04-06T07:21:08.881Z,70.90
2017-04-06T07:22:07.355Z,70.30
2017-04-06T07:23:05.832Z,70.20
2017-04-06T07:24:04.276Z,71.20
2017-04-06T07:25:02.721Z,71.70
2017-04-06T07:26:01.189Z,71.90
2017-04-06T07:26:59.970Z,71.80
2017-04-06T07:27:58.429Z,72.20
2017-04-06T07:28:58.404Z,72.10
2017-04-06T07:29:56.875Z,72.00
2017-04-06T07:30:55.325Z,71.70
2017-04-06T07:31:54.543Z,70.40
2017-04-06T07:32:54.144Z,70.40
2017-04-06T07:33:52.659Z,70.40
2017-04-06T07:34:51.879Z,70.30
2017-04-06T07:35:50.329Z,70.30
2017-04-06T07:36:48.792Z,67.80
2017-04-06T07:37:47.243Z,68.50
2017-04-06T07:38:46.867Z,67.20
2017-04-06T07:39:45.325Z,67.20
2017-04-06T07:40:43.872Z,67.30
2017-04-06T07:41:43.122Z,65.80
2017-04-06T07:42:41.577Z,65.80
2017-04-06T07:43:40.040Z,65.90
2017-04-06T07:44:40.327Z,65.80
2017-04-06T07:45:38.789Z,65.80
2017-04-06T07:46:38.025Z,66.40
2017-04-06T07:47:37.252Z,64.50
2017-04-06T07:48:36.472Z,65.90
2017-04-06T07:49:34.938Z,65.90
2017-04-06T07:50:33.675Z,64.90
2017-04-06T07:51:32.904Z,63.10
2017-04-06T07:52:32.136Z,61.50
2017-04-06T07:53:31.368Z,60.80
2017-04-06T07:54:30.588Z,62.60
2017-04-06T07:55:29.044Z,62.20
2017-04-06T07:56:28.636Z,60.40
2017-04-06T07:57:27.853Z,60.60
2017-04-06T07:58:26.405Z,60.60
2017-04-06T07:59:24.880Z,60.80
2017-04-06T08:00:24.609Z,59.20
2017-04-06T08:01:23.869Z,61.40
2017-04-06T08:02:23.640Z,62.70
2017-04-06T08:03:22.860Z,61.40
2017-04-06T08:04:21.356Z,61.50
2017-04-06T08:05:20.572Z,59.60
2017-04-06T08:06:19.795Z,59.90
2017-04-06T08:07:18.277Z,59.90
2017-04-06T08:08:17.777Z,60.20
2017-04-06T08:09:17.003Z,60.80
2017-04-06T08:10:16.233Z,60.30
2017-04-06T08:11:15.448Z,60.30
2017-04-06T08:12:13.905Z,60.40
2017-04-06T08:13:12.356Z,61.60
2017-04-06T08:14:11.868Z,61.90
2017-04-06T08:15:11.116Z,60.60
2017-04-06T08:16:10.360Z,61.60
2017-04-06T08:17:08.812Z,61.50
2017-04-06T08:18:07.275Z,62.50
2017-04-06T08:19:05.737Z,61.10
2017-04-06T08:20:04.513Z,63.20
2017-04-06T08:21:02.964Z,62.30
2017-04-06T08:22:01.409Z,61.60
2017-04-06T08:22:59.884Z,61.20
2017-04-06T08:23:58.342Z,61.50
2017-04-06T08:24:56.799Z,61.90
2017-04-06T08:25:56.312Z,62.50
2017-04-06T08:26:54.785Z,62.40
2017-04-06T08:27:53.248Z,62.60
2017-04-06T08:28:51.732Z,62.10
2017-04-06T08:29:50.428Z,61.80
2017-04-06T08:30:49.660Z,62.80
2017-04-06T08:31:48.404Z,62.80
2017-04-06T08:32:47.675Z,63.30
2017-04-06T08:33:46.896Z,63.60
2017-04-06T08:34:45.621Z,63.70
2017-04-06T08:35:45.092Z,62.70
2017-04-06T08:36:43.556Z,62.60
2017-04-06T08:37:42.446Z,61.60
2017-04-06T08:38:41.667Z,60.10
2017-04-06T08:39:40.909Z,59.30
2017-04-06T08:40:40.872Z,60.90
2017-04-06T08:41:39.332Z,61.60
2017-04-06T08:42:37.781Z,59.80
2017-04-06T08:43:36.572Z,57.50
2017-04-06T08:44:35.076Z,54.80
2017-04-06T08:45:33.544Z,53.30
2017-04-06T08:46:32.777Z,54.10
2017-04-06T08:47:31.264Z,53.50
2017-04-06T08:48:30.517Z,54.60
2017-04-06T08:49:29.405Z,54.60
2017-04-06T08:50:27.905Z,53.60
2017-04-06T08:51:26.423Z,52.60
2017-04-06T08:52:24.904Z,47.80
2017-04-06T08:53:23.374Z,47.50
2017-04-06T08:54:21.827Z,48.10
2017-04-06T08:55:20.603Z,50.10
2017-04-06T08:56:19.970Z,49.70
2017-04-06T08:57:18.440Z,49.70
2017-04-06T08:58:16.911Z,49.40
2017-04-06T08:59:16.142Z,53.00
2017-04-06T09:00:14.647Z,52.80
2017-04-06T09:01:14.266Z,52.30
2017-04-06T09:02:12.765Z,52.30
2017-04-06T09:03:12.737Z,50.80
2017-04-06T09:04:11.208Z,50.80
2017-04-06T09:05:10.432Z,51.80
2017-04-06T09:06:09.676Z,53.10
2017-04-06T09:07:08.499Z,53.10
2017-04-06T09:08:06.975Z,52.50
2017-04-06T09:09:06.143Z,54.70
2017-04-06T09:10:04.628Z,55.70
2017-04-06T09:11:04.593Z,54.80
2017-04-06T09:12:04.104Z,57.30
2017-04-06T09:13:02.900Z,57.20
2017-04-06T09:14:01.349Z,57.00
2017-04-06T09:14:59.853Z,55.90
2017-04-06T09:15:58.316Z,58.90
2017-04-06T09:16:56.797Z,56.70
2017-04-06T09:17:56.761Z,52.00
2017-04-06T09:18:55.632Z,51.90
2017-04-06T09:19:54.083Z,47.30
2017-04-06T09:20:53.228Z,47.00
2017-04-06T09:21:52.528Z,45.70
2017-04-06T09:22:51.735Z,47.70
2017-04-06T09:23:51.729Z,48.60
2017-04-06T09:24:51.340Z,47.40
2017-04-06T09:25:49.792Z,47.40
2017-04-06T09:26:48.269Z,49.30
2017-04-06T09:27:46.723Z,50.20
2017-04-06T09:28:45.208Z,49.60
2017-04-06T09:29:43.687Z,50.10
2017-04-06T09:30:42.508Z,48.80
2017-04-06T09:31:40.969Z,46.20
2017-04-06T09:32:39.435Z,46.10
2017-04-06T09:33:38.689Z,45.20
2017-04-06T09:34:37.160Z,45.30
2017-04-06T09:35:37.376Z,41.80
2017-04-06T09:36:36.885Z,39.70
2017-04-06T09:37:35.687Z,39.70
2017-04-06T09:38:34.909Z,40.50
2017-04-06T09:39:34.152Z,40.80
2017-04-06T09:40:32.624Z,40.80
2017-04-06T09:41:31.127Z,43.90
2017-04-06T09:42:30.666Z,38.80
2017-04-06T09:43:29.128Z,38.80
2017-04-06T09:44:27.612Z,39.30
2017-04-06T09:45:26.094Z,39.40
2017-04-06T09:46:26.080Z,39.90
2017-04-06T09:47:25.016Z,39.80
2017-04-06T09:48:23.812Z,38.90
2017-04-06T09:49:23.060Z,37.80
2017-04-06T09:50:22.298Z,38.80
2017-04-06T09:51:20.747Z,38.80
2017-04-06T09:52:20.225Z,37.70
2017-04-06T09:53:18.690Z,37.70
2017-04-06T09:54:18.284Z,36.10
2017-04-06T09:55:16.736Z,36.00
2017-04-06T09:56:15.224Z,36.80
2017-04-06T09:57:14.464Z,36.50
2017-04-06T09:58:13.687Z,38.30
2017-04-06T09:59:12.156Z,38.30
2017-04-06T10:00:11.742Z,39.10
2017-04-06T10:01:10.230Z,39.00
2017-04-06T10:02:08.700Z,37.40
2017-04-06T10:03:07.160Z,39.00
2017-04-06T10:04:05.636Z,40.70
2017-04-06T10:05:04.874Z,40.00
2017-04-06T10:06:03.757Z,39.70
2017-04-06T10:07:02.216Z,41.50
2017-04-06T10:08:00.718Z,39.70
2017-04-06T10:08:59.206Z,40.40
2017-04-06T10:09:58.672Z,38.10
2017-04-06T10:10:57.164Z,38.10
2017-04-06T10:11:56.688Z,39.70
2017-04-06T10:12:55.167Z,39.70
2017-04-06T10:13:53.637Z,39.80
2017-04-06T10:14:52.093Z,40.00
2017-04-06T10:15:51.320Z,39.90
2017-04-06T10:16:50.552Z,38.20
2017-04-06T10:17:49.322Z,38.10
2017-04-06T10:18:48.141Z,38.20
2017-04-06T10:19:47.372Z,35.80
2017-04-06T10:20:45.853Z,35.60
2017-04-06T10:21:44.365Z,35.10
2017-04-06T10:22:43.587Z,35.60
2017-04-06T10:23:42.356Z,35.50
2017-04-06T10:24:40.831Z,36.90
2017-04-06T10:25:39.297Z,39.10
2017-04-06T10:26:37.753Z,39.20
2017-04-06T10:27:36.220Z,39.90
2017-04-06T10:28:34.692Z,39.90
2017-04-06T10:29:33.489Z,40.40
2017-04-06T10:30:31.985Z,39.40
2017-04-06T10:31:31.217Z,40.40
2017-04-06T10:32:30.444Z,38.40
2017-04-06T10:33:29.652Z,38.40
2017-04-06T10:34:28.130Z,38.30
2017-04-06T10:35:27.019Z,36.90
2017-04-06T10:36:25.544Z,35.40
2017-04-06T10:37:24.008Z,36.30
2017-04-06T10:38:23.520Z,33.40
2017-04-06T10:39:22.012Z,33.40
2017-04-06T10:40:21.246Z,36.20
2017-04-06T10:41:20.769Z,35.50
2017-04-06T10:42:19.996Z,33.80
2017-04-06T10:43:19.377Z,32.70
2017-04-06T10:44:17.828Z,32.70
2017-04-06T10:45:16.335Z,33.70
2017-04-06T10:46:15.560Z,32.20
2017-04-06T10:47:14.317Z,32.10
2017-04-06T10:48:12.769Z,33.50
2017-04-06T10:49:11.236Z,31.60
2017-04-06T10:50:09.716Z,33.00
2017-04-06T10:51:08.173Z,35.70
2017-04-06T10:52:06.661Z,34.60
2017-04-06T10:53:05.440Z,35.20
2017-04-06T10:54:03.932Z,35.00
2017-04-06T10:55:03.164Z,35.80
2017-04-06T10:56:01.636Z,35.10
2017-04-06T10:57:00.118Z,32.10
2017-04-06T10:57:58.576Z,31.50
2017-04-06T10:58:58.147Z,31.30
2017-04-06T10:59:56.609Z,31.30
2017-04-06T11:00:55.872Z,31.60
2017-04-06T11:01:54.337Z,31.70
2017-04-06T11:02:53.552Z,30.70
2017-04-06T11:03:52.008Z,30.70
2017-04-06T11:04:50.745Z,30.10
2017-04-06T11:05:49.985Z,31.50
2017-04-06T11:06:49.236Z,32.20
2017-04-06T11:07:47.722Z,32.90
2017-04-06T11:08:46.968Z,29.70
2017-04-06T11:09:45.440Z,29.70
2017-04-06T11:10:45.048Z,30.80
2017-04-06T11:11:43.509Z,30.80
2017-04-06T11:12:41.972Z,29.70
2017-04-06T11:13:40.451Z,28.60
2017-04-06T11:14:38.993Z,28.80
2017-04-06T11:15:37.473Z,29.80
2017-04-06T11:16:36.224Z,31.10
2017-04-06T11:17:34.672Z,30.40
2017-04-06T11:18:33.903Z,31.40
2017-04-06T11:19:32.383Z,31.20
2017-04-06T11:20:30.865Z,30.00
2017-04-06T11:21:30.101Z,30.80
2017-04-06T11:22:28.886Z,30.80
2017-04-06T11:23:27.367Z,32.00
2017-04-06T11:24:25.864Z,32.30
2017-04-06T11:25:25.165Z,30.60
2017-04-06T11:26:23.656Z,30.50
2017-04-06T11:27:22.125Z,30.60
2017-04-06T11:28:21.719Z,32.50
2017-04-06T11:29:20.192Z,32.40
2017-04-06T11:30:19.412Z,31.30
2017-04-06T11:31:18.632Z,32.30
2017-04-06T11:32:17.173Z,32.20
2017-04-06T11:33:16.420Z,35.00
2017-04-06T11:34:15.276Z,35.00
2017-04-06T11:35:13.780Z,33.70
2017-04-06T11:36:13.016Z,32.40
2017-04-06T11:37:11.495Z,32.30
2017-04-06T11:38:09.977Z,33.90
2017-04-06T11:39:08.430Z,33.30
2017-04-06T11:40:07.188Z,32.50
2017-04-06T11:41:06.425Z,33.90
2017-04-06T11:42:05.683Z,31.40
2017-04-06T11:43:05.672Z,31.40
2017-04-06T11:44:04.144Z,31.40
2017-04-06T11:45:02.592Z,31.80
2017-04-06T11:46:01.468Z,31.00
2017-04-06T11:46:59.920Z,30.20
2017-04-06T11:47:58.396Z,29.70
2017-04-06T11:48:57.625Z,30.80
2017-04-06T11:49:56.848Z,30.40
2017-04-06T11:50:55.308Z,30.30
2017-04-06T11:51:54.084Z,28.70
2017-04-06T11:52:53.336Z,30.40
2017-04-06T11:53:52.573Z,30.90
2017-04-06T11:54:51.064Z,30.90
2017-04-06T11:55:50.300Z,31.40
2017-04-06T11:56:48.756Z,30.80
2017-04-06T11:57:47.547Z,29.00
2017-04-06T11:58:46.000Z,28.10
2017-04-06T11:59:45.213Z,28.20
2017-04-06T12:00:44.477Z,27.40
2017-04-06T12:01:42.936Z,27.40
2017-04-06T12:02:42.164Z,27.00
2017-04-06T12:03:41.715Z,27.80
2017-04-06T12:04:40.216Z,27.60
2017-04-06T12:05:39.443Z,29.30
2017-04-06T12:06:37.908Z,29.40
2017-04-06T12:07:36.365Z,29.50
2017-04-06T12:08:34.872Z,29.10
2017-04-06T12:09:34.440Z,29.00
2017-04-06T12:10:32.912Z,29.40
2017-04-06T12:11:32.125Z,30.20
2017-04-06T12:12:31.343Z,30.10
2017-04-06T12:13:29.792Z,30.10
2017-04-06T12:14:29.028Z,31.20
2017-04-06T12:15:28.599Z,31.70
2017-04-06T12:16:27.065Z,31.90
2017-04-06T12:17:25.541Z,30.20
2017-04-06T12:18:24.760Z,29.20
2017-04-06T12:19:23.984Z,28.50
2017-04-06T12:20:22.467Z,28.10
2017-04-06T12:21:22.056Z,26.70
2017-04-06T12:22:20.532Z,26.70
2017-04-06T12:23:19.000Z,27.60
2017-04-06T12:24:17.492Z,28.40
2017-04-06T12:25:15.976Z,29.30
2017-04-06T12:26:15.191Z,29.90
2017-04-06T12:27:13.969Z,29.80
2017-04-06T12:28:12.437Z,29.50
2017-04-06T12:29:10.896Z,30.10
2017-04-06T12:30:09.375Z,30.90
2017-04-06T12:31:08.624Z,31.20
2017-04-06T12:32:07.111Z,31.10
2017-04-06T12:33:05.887Z,30.60
2017-04-06T12:34:04.352Z,30.90
2017-04-06T12:35:02.807Z,29.90
2017-04-06T12:36:01.273Z,29.30
2017-04-06T12:36:59.794Z,29.70
2017-04-06T12:37:59.029Z,30.20